Spirit Of Hamburg — 9V2497 — position and weather

sailwx.info

Track history (hours):
 
Tides and Currents Weather Stations Pressure Air Temp Water Temp Dewpoint Dewpoint Depression Visibility Wind Speed Wind Dir Waves Ship Positions

Spirit Of Hamburg

Last reported at 2018-Mar-13 02:58 UTC. Time now 2018-Jul-15 21:02 UTC.
Position N 09°22' W 079°53'.
Warning: this ship's position is months out of date.

Length 254 m; draft 10.6 m.

Type: Cargo ship. MMSI: 564061000.

Date/timePositionNaut miles runAvg speedWind from/ knotsBaromVisibWave heightAir tempDewpointWater temp
2018-Mar-13 02:58N 09°22' W 079°53'0 0.0
2018-Mar-13 02:28N 09°22' W 079°53'0 0.0
2018-Mar-13 01:58N 09°22' W 079°53'0 0.0
2018-Mar-13 01:28N 09°22' W 079°53'0 0.0
2018-Mar-13 00:58N 09°22' W 079°53'0 0.0
2018-Mar-13 00:28N 09°22' W 079°53'0 0.0
2018-Mar-12 23:58N 09°22' W 079°53'0 0.0
2018-Mar-12 23:28N 09°22' W 079°53'0 0.0
2018-Mar-12 22:59N 09°22' W 079°53'1 1.6
2018-Mar-12 22:30N 09°22' W 079°54'3 6.8
2018-Mar-12 22:00N 09°26' W 079°54'0 0.8
2018-Mar-12 21:30N 09°25' W 079°54'2 4.9
2018-Mar-12 21:00N 09°23' W 079°55'5 9.1
2018-Mar-12 20:30N 09°18' W 079°55'2 3.9
2018-Mar-12 20:00N 09°17' W 079°55'0 0.3
2018-Mar-12 19:29N 09°16' W 079°55'0 0.4
2018-Mar-12 19:00N 09°16' W 079°55'0 0.5
2018-Mar-12 18:30N 09°16' W 079°55'0 0.7
2018-Mar-12 18:00N 09°16' W 079°55'2 4.4
2018-Mar-12 17:30N 09°13' W 079°55'3 5.2
2018-Mar-12 16:55N 09°11' W 079°53'  
Track history (hours):
 
Tides and Currents Weather Stations Pressure Air Temp Water Temp Dewpoint Dewpoint Depression Visibility Wind Speed Wind Dir Waves Ship Positions

Spirit Of Hamburg

Last reported at 2018-Mar-13 02:58 UTC. Time now 2018-Jul-15 21:02 UTC.
Position N 09°22' W 079°53'.
Warning: this ship's position is months out of date.

Length 254 m; draft 10.6 m.

Type: Cargo ship. MMSI: 564061000.

Date/timePositionNaut miles runAvg speedWind from/ knotsBaromVisibWave heightAir tempDewpointWater temp
2018-Mar-13 02:58N 09°22' W 079°53'0 0.0
2018-Mar-13 02:28N 09°22' W 079°53'0 0.0
2018-Mar-13 01:58N 09°22' W 079°53'0 0.0
2018-Mar-13 01:28N 09°22' W 079°53'0 0.0
2018-Mar-13 00:58N 09°22' W 079°53'0 0.0
2018-Mar-13 00:28N 09°22' W 079°53'0 0.0
2018-Mar-12 23:58N 09°22' W 079°53'0 0.0
2018-Mar-12 23:28N 09°22' W 079°53'0 0.0
2018-Mar-12 22:59N 09°22' W 079°53'1 1.6
2018-Mar-12 22:30N 09°22' W 079°54'3 6.8
2018-Mar-12 22:00N 09°26' W 079°54'0 0.8
2018-Mar-12 21:30N 09°25' W 079°54'2 4.9
2018-Mar-12 21:00N 09°23' W 079°55'5 9.1
2018-Mar-12 20:30N 09°18' W 079°55'2 3.9
2018-Mar-12 20:00N 09°17' W 079°55'0 0.3
2018-Mar-12 19:29N 09°16' W 079°55'0 0.4
2018-Mar-12 19:00N 09°16' W 079°55'0 0.5
2018-Mar-12 18:30N 09°16' W 079°55'0 0.7
2018-Mar-12 18:00N 09°16' W 079°55'2 4.4
2018-Mar-12 17:30N 09°13' W 079°55'3 5.2
2018-Mar-12 16:55N 09°11' W 079°53'  

Dump ship's entire track history